createdAt,value
2017-07-11T00:00:47.146Z,15.70
2017-07-11T00:03:15.551Z,15.80
2017-07-11T00:05:43.137Z,15.80
2017-07-11T00:08:11.499Z,15.80
2017-07-11T00:10:39.109Z,15.80
2017-07-11T00:13:06.711Z,15.80
2017-07-11T00:15:35.054Z,15.70
2017-07-11T00:18:02.696Z,15.70
2017-07-11T00:20:30.278Z,15.70
2017-07-11T00:22:57.865Z,15.60
2017-07-11T00:25:25.480Z,15.60
2017-07-11T00:27:53.088Z,15.50
2017-07-11T00:30:20.658Z,15.50
2017-07-11T00:32:48.298Z,15.50
2017-07-11T00:35:15.885Z,15.50
2017-07-11T00:37:43.471Z,15.60
2017-07-11T00:40:11.100Z,15.70
2017-07-11T00:42:38.684Z,15.60
2017-07-11T00:45:06.287Z,15.50
2017-07-11T00:47:33.925Z,15.60
2017-07-11T00:50:01.512Z,15.60
2017-07-11T00:52:29.095Z,15.60
2017-07-11T00:54:56.751Z,15.70
2017-07-11T00:57:24.346Z,15.80
2017-07-11T00:59:51.936Z,15.90
2017-07-11T01:02:19.564Z,16.10
2017-07-11T01:04:47.161Z,16.10
2017-07-11T01:07:15.507Z,16.10
2017-07-11T01:09:43.925Z,16.10
2017-07-11T01:12:11.517Z,16.00
2017-07-11T01:14:39.104Z,15.90
2017-07-11T01:17:06.754Z,15.90
2017-07-11T01:19:34.348Z,15.90
2017-07-11T01:22:01.921Z,15.80
2017-07-11T01:24:29.538Z,15.80
2017-07-11T01:26:57.124Z,15.70
2017-07-11T01:29:24.724Z,15.70
2017-07-11T01:31:52.360Z,15.70
2017-07-11T01:34:19.955Z,15.70
2017-07-11T01:36:47.555Z,15.70
2017-07-11T01:39:15.177Z,15.80
2017-07-11T01:41:42.756Z,15.80
2017-07-11T01:44:11.195Z,15.70
2017-07-11T01:46:38.832Z,15.70
2017-07-11T01:49:06.435Z,15.70
2017-07-11T01:51:34.035Z,15.70
2017-07-11T01:54:01.668Z,15.70
2017-07-11T01:56:29.259Z,15.70
2017-07-11T01:58:56.855Z,15.70
2017-07-11T02:01:24.483Z,15.60
2017-07-11T02:03:52.068Z,15.70
2017-07-11T02:06:19.658Z,15.70
2017-07-11T02:08:47.306Z,15.70
2017-07-11T02:11:14.893Z,15.70
2017-07-11T02:13:42.481Z,15.70
2017-07-11T02:16:10.118Z,15.70
2017-07-11T02:18:37.705Z,15.70
2017-07-11T02:21:05.276Z,15.70
2017-07-11T02:23:32.903Z,15.70
2017-07-11T02:26:00.502Z,15.70
2017-07-11T02:28:28.098Z,15.70
2017-07-11T02:30:55.746Z,15.70
2017-07-11T02:33:23.358Z,15.70
2017-07-11T02:35:50.945Z,15.80
2017-07-11T02:38:18.579Z,15.80
2017-07-11T02:40:46.175Z,15.80
2017-07-11T02:43:13.774Z,15.80
2017-07-11T02:45:41.425Z,15.80
2017-07-11T02:48:09.012Z,15.80
2017-07-11T02:50:36.598Z,15.80
2017-07-11T02:53:04.227Z,15.90
2017-07-11T02:55:31.815Z,15.90
2017-07-11T02:58:00.171Z,15.90
2017-07-11T03:00:27.806Z,15.90
2017-07-11T03:02:55.378Z,15.90
2017-07-11T03:05:22.961Z,15.90
2017-07-11T03:07:50.591Z,15.90
2017-07-11T03:10:18.183Z,15.90
2017-07-11T03:12:45.783Z,16.00
2017-07-11T03:15:13.428Z,16.00
2017-07-11T03:17:41.013Z,16.00
2017-07-11T03:20:08.595Z,16.00
2017-07-11T03:22:36.219Z,16.00
2017-07-11T03:25:03.809Z,16.00
2017-07-11T03:27:31.396Z,16.00
2017-07-11T03:29:59.044Z,16.00
2017-07-11T03:32:26.636Z,16.00
2017-07-11T03:34:54.237Z,16.00
2017-07-11T03:37:22.647Z,16.00
2017-07-11T03:39:50.249Z,16.00
2017-07-11T03:42:17.822Z,16.00
2017-07-11T03:44:45.464Z,16.00
2017-07-11T03:47:13.060Z,16.10
2017-07-11T03:49:40.648Z,16.10
2017-07-11T03:52:08.271Z,16.10
2017-07-11T03:54:36.636Z,16.10
2017-07-11T03:57:04.999Z,16.10
2017-07-11T03:59:32.633Z,16.10
2017-07-11T04:02:00.974Z,16.20
2017-07-11T04:04:28.589Z,16.10
2017-07-11T04:06:56.216Z,16.20
2017-07-11T04:09:23.802Z,16.20
2017-07-11T04:11:51.389Z,16.20
2017-07-11T04:14:19.769Z,16.20
2017-07-11T04:16:47.379Z,16.20
2017-07-11T04:19:14.954Z,16.20
2017-07-11T04:21:42.579Z,16.30
2017-07-11T04:24:10.913Z,16.40
2017-07-11T04:26:38.509Z,16.30
2017-07-11T04:29:06.163Z,16.40
2017-07-11T04:31:33.990Z,16.40
2017-07-11T04:34:01.611Z,16.50
2017-07-11T04:36:29.243Z,16.50
2017-07-11T04:38:56.853Z,16.50
2017-07-11T04:41:24.453Z,16.50
2017-07-11T04:43:52.854Z,16.50
2017-07-11T04:46:20.443Z,16.50
2017-07-11T04:48:48.045Z,16.50
2017-07-11T04:51:15.718Z,16.50
2017-07-11T04:53:43.307Z,16.50
2017-07-11T04:56:11.532Z,16.50
2017-07-11T04:58:39.164Z,16.60
2017-07-11T05:01:06.768Z,16.60
2017-07-11T05:03:34.366Z,16.60
2017-07-11T05:06:02.169Z,16.60
2017-07-11T05:08:29.758Z,16.60
2017-07-11T05:10:57.344Z,16.60
2017-07-11T05:13:25.727Z,16.60
2017-07-11T05:15:53.316Z,16.60
2017-07-11T05:18:20.903Z,16.60
2017-07-11T05:20:48.551Z,16.60
2017-07-11T05:23:16.275Z,16.70
2017-07-11T05:25:44.627Z,16.70
2017-07-11T05:28:12.282Z,16.70
2017-07-11T05:30:40.647Z,16.80
2017-07-11T05:33:09.309Z,16.80
2017-07-11T05:35:37.722Z,16.80
2017-07-11T05:38:05.294Z,16.80
2017-07-11T05:40:32.899Z,16.80
2017-07-11T05:43:00.529Z,16.80
2017-07-11T05:45:28.120Z,16.80
2017-07-11T05:47:55.718Z,16.80
2017-07-11T05:50:23.369Z,16.70
2017-07-11T05:52:50.979Z,16.70
2017-07-11T05:55:18.583Z,16.70
2017-07-11T05:57:46.391Z,16.80
2017-07-11T06:00:13.979Z,16.90
2017-07-11T06:02:41.572Z,16.90
2017-07-11T06:05:10.005Z,16.90
2017-07-11T06:07:37.596Z,16.90
2017-07-11T06:10:05.183Z,16.90
2017-07-11T06:12:32.817Z,16.90
2017-07-11T06:15:00.424Z,16.90
2017-07-11T06:17:28.024Z,16.90
2017-07-11T06:19:55.635Z,16.80
2017-07-11T06:22:23.297Z,16.80
2017-07-11T06:24:50.904Z,16.90
2017-07-11T06:27:19.379Z,16.90
2017-07-11T06:29:46.986Z,16.90
2017-07-11T06:32:14.580Z,16.90
2017-07-11T06:34:42.220Z,16.90
2017-07-11T06:37:09.818Z,16.90
2017-07-11T06:39:37.399Z,16.90
2017-07-11T06:42:05.034Z,16.90
2017-07-11T06:44:32.628Z,16.90
2017-07-11T06:47:01.848Z,16.90
2017-07-11T06:49:30.234Z,17.00
2017-07-11T06:51:57.824Z,17.00
2017-07-11T06:54:25.483Z,17.10
2017-07-11T06:56:53.076Z,17.20
2017-07-11T06:59:20.662Z,17.20
2017-07-11T07:01:48.246Z,17.20
2017-07-11T07:04:16.673Z,17.30
2017-07-11T07:06:44.278Z,17.30
2017-07-11T07:09:11.872Z,17.30
2017-07-11T07:11:39.503Z,17.40
2017-07-11T07:14:07.082Z,17.40
2017-07-11T07:16:34.669Z,17.40
2017-07-11T07:19:02.294Z,17.40
2017-07-11T07:21:30.167Z,17.40
2017-07-11T07:23:57.756Z,17.50
2017-07-11T07:26:25.392Z,17.60
2017-07-11T07:28:52.978Z,17.70
2017-07-11T07:31:20.652Z,17.80
2017-07-11T07:33:48.295Z,18.00
2017-07-11T07:36:15.873Z,18.10
2017-07-11T07:38:43.465Z,18.30
2017-07-11T07:41:11.183Z,18.30
2017-07-11T07:43:38.774Z,18.40
2017-07-11T07:46:06.378Z,18.40
2017-07-11T07:48:35.592Z,18.40
2017-07-11T07:51:03.193Z,18.40
2017-07-11T07:53:31.556Z,18.40
2017-07-11T07:55:59.950Z,18.50
2017-07-11T07:58:27.549Z,18.50
2017-07-11T08:00:55.146Z,18.70
2017-07-11T08:03:22.817Z,18.80
2017-07-11T08:05:50.416Z,19.00
2017-07-11T08:08:18.029Z,19.20
2017-07-11T08:10:46.053Z,19.50
2017-07-11T08:13:13.669Z,20.10
2017-07-11T08:15:41.254Z,20.80
2017-07-11T08:18:08.896Z,21.50
2017-07-11T08:20:36.496Z,22.20
2017-07-11T08:23:04.101Z,22.80
2017-07-11T08:25:31.753Z,23.30
2017-07-11T08:27:59.358Z,23.80
2017-07-11T08:30:26.944Z,23.70
2017-07-11T08:32:54.569Z,23.70
2017-07-11T08:35:22.156Z,23.60
2017-07-11T08:37:50.508Z,23.50
2017-07-11T08:40:19.416Z,23.60
2017-07-11T08:42:47.011Z,23.60
2017-07-11T08:45:14.601Z,23.70
2017-07-11T08:47:42.215Z,23.80
2017-07-11T08:50:10.589Z,23.40
2017-07-11T08:52:38.190Z,23.30
2017-07-11T08:55:05.814Z,23.50
2017-07-11T08:57:33.414Z,23.40
2017-07-11T09:00:01.005Z,23.00
2017-07-11T09:02:28.643Z,22.70
2017-07-11T09:04:57.185Z,22.50
2017-07-11T09:07:24.776Z,22.50
2017-07-11T09:09:52.399Z,23.00
2017-07-11T09:12:19.971Z,23.30
2017-07-11T09:14:47.584Z,23.50
2017-07-11T09:17:15.232Z,23.70
2017-07-11T09:19:42.843Z,23.80
2017-07-11T09:22:11.211Z,24.20
2017-07-11T09:24:38.834Z,24.20
2017-07-11T09:27:06.407Z,24.20
2017-07-11T09:29:34.006Z,24.20
2017-07-11T09:32:01.654Z,24.30
2017-07-11T09:34:29.257Z,24.70
2017-07-11T09:36:56.941Z,24.90
2017-07-11T09:39:24.566Z,25.00
2017-07-11T09:41:52.157Z,25.00
2017-07-11T09:44:19.721Z,25.40
2017-07-11T09:46:47.356Z,25.60
2017-07-11T09:49:14.973Z,25.30
2017-07-11T09:51:42.559Z,24.60
2017-07-11T09:54:10.195Z,24.10
2017-07-11T09:56:38.554Z,23.30
2017-07-11T09:59:06.900Z,23.10
2017-07-11T10:01:35.304Z,23.10
2017-07-11T10:04:02.900Z,23.00
2017-07-11T10:06:30.496Z,23.00
2017-07-11T10:08:58.116Z,23.50
2017-07-11T10:11:26.546Z,24.10
2017-07-11T10:13:54.140Z,24.50
2017-07-11T10:16:21.794Z,24.80
2017-07-11T10:18:49.401Z,25.10
2017-07-11T10:21:17.777Z,25.00
2017-07-11T10:23:45.395Z,24.90
2017-07-11T10:26:12.983Z,25.20
2017-07-11T10:28:40.591Z,25.20
2017-07-11T10:31:08.988Z,25.40
2017-07-11T10:33:36.580Z,25.40
2017-07-11T10:36:04.190Z,25.40
2017-07-11T10:38:31.838Z,25.20
2017-07-11T10:40:59.421Z,25.00
2017-07-11T10:43:27.060Z,25.00
2017-07-11T10:45:54.683Z,24.80
2017-07-11T10:48:22.309Z,24.50
2017-07-11T10:50:49.907Z,24.20
2017-07-11T10:53:17.537Z,23.70
2017-07-11T10:55:45.119Z,23.20
2017-07-11T10:58:12.694Z,22.90
2017-07-11T11:00:40.320Z,22.60
2017-07-11T11:03:07.905Z,22.50
2017-07-11T11:05:35.485Z,22.40
2017-07-11T11:08:03.880Z,23.40
2017-07-11T11:10:31.477Z,23.40
2017-07-11T11:12:59.069Z,24.00
2017-07-11T11:15:26.696Z,24.60
2017-07-11T11:17:54.281Z,25.00
2017-07-11T11:20:21.864Z,25.10
2017-07-11T11:22:50.274Z,25.00
2017-07-11T11:25:17.841Z,25.00
2017-07-11T11:27:45.410Z,25.00
2017-07-11T11:30:13.019Z,24.90
2017-07-11T11:32:40.608Z,25.10
2017-07-11T11:35:08.942Z,25.10
2017-07-11T11:37:36.567Z,25.10
2017-07-11T11:40:04.153Z,25.20
2017-07-11T11:42:32.591Z,24.60
2017-07-11T11:45:00.227Z,24.60
2017-07-11T11:47:27.829Z,23.70
2017-07-11T11:49:55.421Z,23.20
2017-07-11T11:52:23.047Z,23.10
2017-07-11T11:54:50.640Z,22.80
2017-07-11T11:57:19.002Z,22.30
2017-07-11T11:59:46.626Z,22.30
2017-07-11T12:02:14.205Z,22.30
2017-07-11T12:04:42.548Z,23.00
2017-07-11T12:07:10.184Z,23.00
2017-07-11T12:09:37.758Z,23.50
2017-07-11T12:12:06.118Z,24.30
2017-07-11T12:14:34.516Z,24.50
2017-07-11T12:17:02.107Z,24.50
2017-07-11T12:19:30.466Z,24.70
2017-07-11T12:21:58.114Z,24.70
2017-07-11T12:24:26.484Z,24.90
2017-07-11T12:26:54.850Z,25.00
2017-07-11T12:29:23.244Z,25.10
2017-07-11T12:31:50.841Z,25.10
2017-07-11T12:34:18.454Z,25.10
2017-07-11T12:36:46.092Z,25.20
2017-07-11T12:39:13.677Z,25.20
2017-07-11T12:41:41.275Z,25.00
2017-07-11T12:44:08.913Z,25.30
2017-07-11T12:46:36.493Z,25.50
2017-07-11T12:49:04.106Z,25.40
2017-07-11T12:51:31.733Z,25.30
2017-07-11T12:53:59.309Z,25.20
2017-07-11T12:56:26.882Z,25.30
2017-07-11T12:58:54.522Z,25.40
2017-07-11T13:01:22.122Z,25.60
2017-07-11T13:03:49.730Z,25.80
2017-07-11T13:06:18.136Z,25.50
2017-07-11T13:08:46.244Z,25.50
2017-07-11T13:11:13.822Z,25.20
2017-07-11T13:13:41.448Z,25.20
2017-07-11T13:16:09.042Z,24.60
2017-07-11T13:18:36.611Z,24.20
2017-07-11T13:21:04.245Z,23.70
2017-07-11T13:23:31.813Z,23.50
2017-07-11T13:25:59.387Z,23.30
2017-07-11T13:28:27.024Z,23.10
2017-07-11T13:30:54.589Z,22.70
2017-07-11T13:33:22.167Z,22.50
2017-07-11T13:35:49.786Z,22.20
2017-07-11T13:38:17.409Z,22.00
2017-07-11T13:40:45.008Z,21.80
2017-07-11T13:43:12.635Z,21.60
2017-07-11T13:45:40.252Z,21.40
2017-07-11T13:48:07.863Z,21.30
2017-07-11T13:50:36.259Z,21.00
2017-07-11T13:53:03.843Z,21.00
2017-07-11T13:55:31.437Z,21.00
2017-07-11T13:57:59.068Z,20.90
2017-07-11T14:00:26.646Z,21.00
2017-07-11T14:02:54.246Z,21.20
2017-07-11T14:05:22.637Z,21.30
2017-07-11T14:07:50.206Z,21.20
2017-07-11T14:10:17.780Z,21.30
2017-07-11T14:12:45.407Z,21.50
2017-07-11T14:15:12.990Z,21.70
2017-07-11T14:17:41.336Z,22.10
2017-07-11T14:20:08.955Z,22.10
2017-07-11T14:22:36.559Z,22.30
2017-07-11T14:25:04.144Z,22.30
2017-07-11T14:27:31.764Z,22.40
2017-07-11T14:29:59.357Z,22.70
2017-07-11T14:32:26.946Z,23.10
2017-07-11T14:34:54.598Z,23.00
2017-07-11T14:37:22.213Z,22.80
2017-07-11T14:39:50.568Z,22.90
2017-07-11T14:42:18.199Z,22.90
2017-07-11T14:44:45.814Z,22.80
2017-07-11T14:47:13.405Z,22.80
2017-07-11T14:49:42.065Z,22.70
2017-07-11T14:52:09.639Z,22.70
2017-07-11T14:54:37.221Z,22.70
2017-07-11T14:57:04.869Z,22.70
2017-07-11T14:59:32.438Z,22.70
2017-07-11T15:02:00.013Z,22.80
2017-07-11T15:04:27.644Z,22.90
2017-07-11T15:06:55.998Z,22.90
2017-07-11T15:09:24.348Z,23.00
2017-07-11T15:11:51.984Z,22.90
2017-07-11T15:14:19.550Z,23.00
2017-07-11T15:16:47.893Z,23.10
2017-07-11T15:19:15.517Z,23.10
2017-07-11T15:21:43.091Z,23.10
2017-07-11T15:24:10.685Z,23.10
2017-07-11T15:26:38.308Z,23.10
2017-07-11T15:29:05.898Z,23.10
2017-07-11T15:31:34.265Z,23.10
2017-07-11T15:34:02.757Z,23.10
2017-07-11T15:36:31.220Z,23.40
2017-07-11T15:38:59.745Z,23.50
2017-07-11T15:41:29.215Z,23.60
2017-07-11T15:43:57.520Z,23.60
2017-07-11T15:46:25.976Z,23.40
2017-07-11T15:48:54.733Z,23.70
2017-07-11T15:51:23.428Z,23.70
2017-07-11T15:53:51.766Z,23.70
2017-07-11T15:56:20.203Z,23.70
2017-07-11T15:58:48.891Z,23.70
2017-07-11T16:01:18.089Z,23.70
2017-07-11T16:03:46.889Z,23.80
2017-07-11T16:06:15.667Z,23.80
2017-07-11T16:08:44.367Z,23.90
2017-07-11T16:11:12.895Z,23.80
2017-07-11T16:13:41.546Z,23.70
2017-07-11T16:16:10.124Z,23.50
2017-07-11T16:18:38.206Z,23.30
2017-07-11T16:21:07.373Z,23.20
2017-07-11T16:23:35.902Z,23.00
2017-07-11T16:26:04.526Z,22.90
2017-07-11T16:28:32.871Z,22.90
2017-07-11T16:31:01.249Z,22.80
2017-07-11T16:33:30.594Z,22.60
2017-07-11T16:35:59.131Z,22.60
2017-07-11T16:38:27.707Z,22.40
2017-07-11T16:40:56.371Z,22.30
2017-07-11T16:43:24.769Z,22.10
2017-07-11T16:45:52.432Z,21.70
2017-07-11T16:48:20.857Z,20.20
2017-07-11T16:50:48.441Z,20.20
2017-07-11T16:53:16.801Z,19.30
2017-07-11T16:55:45.494Z,19.10
2017-07-11T16:58:13.070Z,19.10
2017-07-11T17:00:40.657Z,18.90
2017-07-11T17:03:08.266Z,18.60
2017-07-11T17:05:35.849Z,18.50
2017-07-11T17:08:04.213Z,18.30
2017-07-11T17:10:32.624Z,18.20
2017-07-11T17:13:00.221Z,18.20
2017-07-11T17:15:28.564Z,18.30
2017-07-11T17:17:56.193Z,18.30
2017-07-11T17:20:23.785Z,18.30
2017-07-11T17:22:51.356Z,18.50
2017-07-11T17:25:18.984Z,18.50
2017-07-11T17:27:46.600Z,18.60
2017-07-11T17:30:14.957Z,18.70
2017-07-11T17:32:43.365Z,18.70
2017-07-11T17:35:10.939Z,18.70
2017-07-11T17:37:38.534Z,18.80
2017-07-11T17:42:36.152Z,18.70
2017-07-11T17:45:03.737Z,18.70
2017-07-11T17:47:31.398Z,18.80
2017-07-11T17:49:59.027Z,18.90
2017-07-11T17:52:26.639Z,18.80
2017-07-11T17:54:54.274Z,18.80
2017-07-11T17:57:21.860Z,18.90
2017-07-11T17:59:49.476Z,18.90
2017-07-11T18:02:17.878Z,18.70
2017-07-11T18:04:45.483Z,18.70
2017-07-11T18:07:13.132Z,18.60
2017-07-11T18:09:40.761Z,18.50
2017-07-11T18:12:08.329Z,18.30
2017-07-11T18:14:36.690Z,18.30
2017-07-11T18:17:05.070Z,18.20
2017-07-11T18:19:32.681Z,18.30
2017-07-11T18:22:01.042Z,18.20
2017-07-11T18:24:28.809Z,18.20
2017-07-11T18:26:56.414Z,18.30
2017-07-11T18:29:23.995Z,18.40
2017-07-11T18:31:51.655Z,18.30
2017-07-11T18:34:19.251Z,18.30
2017-07-11T18:36:46.845Z,18.40
2017-07-11T18:39:14.488Z,18.40
2017-07-11T18:41:42.095Z,18.40
2017-07-11T18:44:09.681Z,18.30
2017-07-11T18:46:37.304Z,18.30
2017-07-11T18:49:05.695Z,18.30
2017-07-11T18:51:33.287Z,18.30
2017-07-11T18:54:00.932Z,18.30
2017-07-11T18:56:28.527Z,18.30
2017-07-11T18:58:56.112Z,17.80
2017-07-11T19:01:23.742Z,18.30
2017-07-11T19:03:51.327Z,18.20
2017-07-11T19:06:18.934Z,18.10
2017-07-11T19:08:46.581Z,18.10
2017-07-11T19:11:14.169Z,18.10
2017-07-11T19:13:42.520Z,18.00
2017-07-11T19:16:10.909Z,18.00
2017-07-11T19:18:38.504Z,17.90
2017-07-11T19:21:06.107Z,17.90
2017-07-11T19:23:33.736Z,17.90
2017-07-11T19:26:01.335Z,18.00
2017-07-11T19:28:28.921Z,18.00
2017-07-11T19:30:57.326Z,18.00
2017-07-11T19:33:24.907Z,18.00
2017-07-11T19:35:52.496Z,18.00
2017-07-11T19:38:20.145Z,17.90
2017-07-11T19:40:47.942Z,17.90
2017-07-11T19:43:15.568Z,17.90
2017-07-11T19:45:43.907Z,17.80
2017-07-11T19:48:11.560Z,17.70
2017-07-11T19:50:39.649Z,17.60
2017-07-11T19:53:07.281Z,17.60
2017-07-11T19:55:34.851Z,17.60
2017-07-11T19:58:02.434Z,17.60
2017-07-11T20:00:30.046Z,17.50
2017-07-11T20:02:57.627Z,17.40
2017-07-11T20:05:25.215Z,17.40
2017-07-11T20:07:52.845Z,17.20
2017-07-11T20:10:20.415Z,17.10
2017-07-11T20:12:48.002Z,17.00
2017-07-11T20:15:15.647Z,17.00
2017-07-11T20:17:43.247Z,17.00
2017-07-11T20:20:11.596Z,16.90
2017-07-11T20:22:39.232Z,16.80
2017-07-11T20:25:06.823Z,16.70
2017-07-11T20:27:34.419Z,16.60
2017-07-11T20:30:02.026Z,16.50
2017-07-11T20:32:29.604Z,16.40
2017-07-11T20:34:57.184Z,16.40
2017-07-11T20:37:24.829Z,16.30
2017-07-11T20:39:52.413Z,16.30
2017-07-11T20:42:20.002Z,16.20
2017-07-11T20:44:47.640Z,16.20
2017-07-11T20:47:15.230Z,16.20
2017-07-11T20:49:42.801Z,16.20
2017-07-11T20:52:10.419Z,16.20
2017-07-11T20:54:37.982Z,16.20
2017-07-11T20:57:05.573Z,16.30
2017-07-11T20:59:33.207Z,16.30
2017-07-11T21:02:00.779Z,16.20
2017-07-11T21:04:28.364Z,16.10
2017-07-11T21:06:55.984Z,16.00
2017-07-11T21:09:23.582Z,16.00
2017-07-11T21:11:51.173Z,15.90
2017-07-11T21:14:18.786Z,15.90
2017-07-11T21:16:46.359Z,15.80
2017-07-11T21:19:13.940Z,15.80
2017-07-11T21:21:41.573Z,15.80
2017-07-11T21:24:09.159Z,15.80
2017-07-11T21:26:36.727Z,15.80
2017-07-11T21:29:04.361Z,15.70
2017-07-11T21:31:32.704Z,15.70
2017-07-11T21:34:00.291Z,15.70
2017-07-11T21:36:27.956Z,15.60
2017-07-11T21:38:55.557Z,15.60
2017-07-11T21:41:23.923Z,15.60
2017-07-11T21:43:52.317Z,15.50
2017-07-11T21:46:19.904Z,15.50
2017-07-11T21:48:47.488Z,15.50
2017-07-11T21:51:15.108Z,15.50
2017-07-11T21:53:42.691Z,15.50
2017-07-11T21:56:10.286Z,15.50
2017-07-11T21:58:37.912Z,15.50
2017-07-11T22:01:05.482Z,15.50
2017-07-11T22:03:33.049Z,15.50
2017-07-11T22:06:00.662Z,15.50
2017-07-11T22:08:28.247Z,15.50
2017-07-11T22:10:55.837Z,15.40
2017-07-11T22:13:23.455Z,15.40
2017-07-11T22:15:51.036Z,15.40
2017-07-11T22:18:18.612Z,15.40
2017-07-11T22:20:46.247Z,15.30
2017-07-11T22:23:14.600Z,15.30
2017-07-11T22:25:42.191Z,15.30
2017-07-11T22:28:09.820Z,15.40
2017-07-11T22:30:37.407Z,15.40
2017-07-11T22:33:04.999Z,15.30
2017-07-11T22:35:32.622Z,15.30
2017-07-11T22:38:00.214Z,15.30
2017-07-11T22:40:27.787Z,15.30
2017-07-11T22:42:55.443Z,15.30
2017-07-11T22:45:23.078Z,15.30
2017-07-11T22:47:50.664Z,15.30
2017-07-11T22:50:18.306Z,15.30
2017-07-11T22:52:46.664Z,15.40
2017-07-11T22:55:15.007Z,15.40
2017-07-11T22:57:42.649Z,15.30
2017-07-11T23:00:10.232Z,15.40
2017-07-11T23:02:37.831Z,15.40
2017-07-11T23:05:05.493Z,15.40
2017-07-11T23:07:34.124Z,15.40
2017-07-11T23:10:01.709Z,15.40
2017-07-11T23:12:30.111Z,15.40
2017-07-11T23:14:57.695Z,15.40
2017-07-11T23:17:25.293Z,15.40
2017-07-11T23:19:52.928Z,15.40
2017-07-11T23:22:20.514Z,15.40
2017-07-11T23:24:48.115Z,15.40
2017-07-11T23:27:15.752Z,15.40
2017-07-11T23:29:44.099Z,15.40
2017-07-11T23:32:11.702Z,15.40
2017-07-11T23:34:39.333Z,15.40
2017-07-11T23:37:06.919Z,15.30
2017-07-11T23:39:34.494Z,15.40
2017-07-11T23:42:02.128Z,15.30
2017-07-11T23:44:29.703Z,15.30
2017-07-11T23:46:57.294Z,15.30
2017-07-11T23:49:24.949Z,15.30
2017-07-11T23:51:52.536Z,15.40
2017-07-11T23:54:20.106Z,15.50
2017-07-11T23:56:47.732Z,15.50
2017-07-11T23:59:15.328Z,15.60
